createdAt,value
2023-04-15T00:01:37.559Z,8.43
2023-04-15T00:04:05.099Z,8.07
2023-04-15T00:06:32.085Z,9.10
2023-04-15T00:08:59.235Z,8.38
2023-04-15T00:11:26.337Z,5.90
2023-04-15T00:13:53.203Z,6.38
2023-04-15T00:16:20.082Z,6.85
2023-04-15T00:18:46.886Z,6.47
2023-04-15T00:21:13.742Z,5.50
2023-04-15T00:23:40.659Z,6.47
2023-04-15T00:26:07.584Z,6.35
2023-04-15T00:28:34.445Z,8.00
2023-04-15T00:31:01.456Z,7.50
2023-04-15T00:33:28.388Z,9.45
2023-04-15T00:35:55.266Z,6.65
2023-04-15T00:38:22.106Z,7.22
2023-04-15T00:40:49.119Z,10.13
2023-04-15T00:43:16.440Z,6.97
2023-04-15T00:45:43.507Z,6.35
2023-04-15T00:48:11.474Z,7.53
2023-04-15T00:50:38.492Z,7.35
2023-04-15T00:53:05.721Z,5.95
2023-04-15T00:55:32.625Z,5.45
2023-04-15T00:57:59.537Z,6.32
2023-04-15T01:00:26.881Z,7.05
2023-04-15T01:02:53.968Z,8.38
2023-04-15T01:05:20.939Z,7.80
2023-04-15T01:07:48.654Z,6.30
2023-04-15T01:10:15.601Z,7.30
2023-04-15T01:12:43.356Z,7.53
2023-04-15T01:15:11.180Z,7.28
2023-04-15T01:17:38.713Z,8.00
2023-04-15T01:20:06.498Z,8.80
2023-04-15T01:22:34.493Z,8.18
2023-04-15T01:25:20.227Z,10.00
2023-04-15T01:27:47.638Z,9.88
2023-04-15T01:30:14.473Z,7.75
2023-04-15T01:32:41.758Z,11.13
2023-04-15T01:35:09.067Z,7.75
2023-04-15T01:37:36.853Z,14.23
2023-04-15T01:40:03.836Z,7.32
2023-04-15T01:42:30.641Z,8.50
2023-04-15T01:44:57.448Z,10.63
2023-04-15T01:47:24.268Z,8.82
2023-04-15T01:49:51.640Z,8.00
2023-04-15T01:52:18.519Z,7.63
2023-04-15T01:54:45.746Z,9.63
2023-04-15T01:57:12.895Z,6.97
2023-04-15T01:59:39.740Z,7.40
2023-04-15T02:02:06.636Z,8.57
2023-04-15T02:04:34.203Z,8.10
2023-04-15T02:07:01.699Z,8.55
2023-04-15T02:09:28.647Z,8.88
2023-04-15T02:11:55.505Z,7.93
2023-04-15T02:14:22.439Z,8.55
2023-04-15T02:16:49.462Z,6.90
2023-04-15T02:19:16.355Z,7.85
2023-04-15T02:21:43.233Z,7.28
2023-04-15T02:24:10.407Z,10.35
2023-04-15T02:26:37.229Z,9.15
2023-04-15T02:29:04.359Z,7.53
2023-04-15T02:31:34.144Z,11.48
2023-04-15T02:34:03.030Z,9.30
2023-04-15T02:36:31.640Z,8.30
2023-04-15T02:38:58.759Z,9.60
2023-04-15T02:41:27.849Z,7.85
2023-04-15T02:43:55.144Z,7.78
2023-04-15T02:46:22.993Z,9.25
2023-04-15T02:48:50.644Z,8.40
2023-04-15T02:51:22.883Z,9.18
2023-04-15T02:53:50.606Z,10.98
2023-04-15T02:56:19.323Z,8.45
2023-04-15T02:58:46.228Z,8.97
2023-04-15T03:01:13.672Z,8.20
2023-04-15T03:03:40.729Z,8.48
2023-04-15T03:06:08.877Z,10.32
2023-04-15T03:08:36.413Z,10.18
2023-04-15T03:11:03.497Z,7.95
2023-04-15T03:13:30.500Z,9.90
2023-04-15T03:15:57.370Z,10.38
2023-04-15T03:18:24.310Z,8.48
2023-04-15T03:20:51.267Z,8.98
2023-04-15T03:23:18.302Z,8.02
2023-04-15T03:25:45.443Z,10.30
2023-04-15T03:28:12.655Z,11.43
2023-04-15T03:30:39.564Z,9.60
2023-04-15T03:33:06.993Z,9.63
2023-04-15T03:35:34.090Z,9.90
2023-04-15T03:38:01.033Z,10.35
2023-04-15T03:40:27.948Z,11.82
2023-04-15T03:42:54.806Z,10.63
2023-04-15T03:45:21.656Z,8.95
2023-04-15T03:47:49.794Z,8.55
2023-04-15T03:50:16.727Z,9.57
2023-04-15T03:52:44.691Z,9.10
2023-04-15T03:55:11.616Z,10.75
2023-04-15T03:57:39.363Z,9.60
2023-04-15T04:00:07.637Z,8.70
2023-04-15T04:02:34.791Z,8.07
2023-04-15T04:05:01.764Z,10.30
2023-04-15T04:07:28.742Z,10.60
2023-04-15T04:09:56.556Z,10.65
2023-04-15T04:12:23.378Z,13.45
2023-04-15T04:14:50.458Z,9.63
2023-04-15T04:17:17.439Z,10.40
2023-04-15T04:19:44.313Z,9.43
2023-04-15T04:22:11.367Z,9.18
2023-04-15T04:24:38.156Z,10.05
2023-04-15T04:27:05.177Z,13.93
2023-04-15T04:29:32.050Z,12.23
2023-04-15T04:31:58.928Z,10.40
2023-04-15T04:34:25.758Z,8.82
2023-04-15T04:36:52.604Z,13.20
2023-04-15T04:39:19.405Z,11.82
2023-04-15T04:41:46.222Z,10.95
2023-04-15T04:44:13.057Z,16.15
2023-04-15T04:46:39.898Z,11.15
2023-04-15T04:49:07.028Z,14.75
2023-04-15T04:51:33.985Z,12.50
2023-04-15T04:54:02.447Z,10.88
2023-04-15T04:56:30.456Z,12.40
2023-04-15T04:58:57.266Z,10.07
2023-04-15T05:01:24.268Z,11.40
2023-04-15T05:03:51.276Z,11.45
2023-04-15T05:06:18.248Z,9.85
2023-04-15T05:08:47.052Z,13.02
2023-04-15T05:11:13.939Z,13.32
2023-04-15T05:13:40.884Z,11.15
2023-04-15T05:16:08.522Z,10.73
2023-04-15T05:18:35.634Z,14.35
2023-04-15T05:21:03.035Z,11.68
2023-04-15T05:23:29.955Z,12.38
2023-04-15T05:25:56.771Z,11.00
2023-04-15T05:28:23.571Z,10.50
2023-04-15T05:30:50.662Z,10.30
2023-04-15T05:33:17.716Z,13.50
2023-04-15T05:35:44.630Z,10.38
2023-04-15T05:38:11.644Z,12.32
2023-04-15T05:40:38.487Z,11.48
2023-04-15T05:43:05.498Z,11.77
2023-04-15T05:45:32.507Z,11.25
2023-04-15T05:47:59.433Z,12.25
2023-04-15T05:50:26.355Z,10.40
2023-04-15T05:52:53.222Z,11.77
2023-04-15T05:55:20.088Z,13.88
2023-04-15T05:57:46.962Z,12.23
2023-04-15T06:00:14.486Z,12.40
2023-04-15T06:02:41.783Z,12.60
2023-04-15T06:05:10.054Z,11.70
2023-04-15T06:07:37.790Z,10.90
2023-04-15T06:10:05.836Z,11.65
2023-04-15T06:12:32.924Z,10.57
2023-04-15T06:15:00.377Z,12.68
2023-04-15T06:17:27.557Z,11.25
2023-04-15T06:19:55.831Z,10.98
2023-04-15T06:22:23.476Z,10.82
2023-04-15T06:24:51.602Z,12.80
2023-04-15T06:27:18.997Z,12.05
2023-04-15T06:29:46.256Z,11.73
2023-04-15T06:32:13.136Z,11.27
2023-04-15T06:34:39.984Z,10.00
2023-04-15T06:37:07.101Z,11.50
2023-04-15T06:39:33.924Z,11.45
2023-04-15T06:42:01.561Z,12.32
2023-04-15T06:44:29.154Z,12.10
2023-04-15T06:46:56.664Z,12.02
2023-04-15T06:49:23.542Z,12.75
2023-04-15T06:51:51.373Z,11.32
2023-04-15T06:54:18.280Z,15.20
2023-04-15T06:56:45.140Z,10.55
2023-04-15T06:59:12.919Z,11.40
2023-04-15T07:01:41.290Z,11.07
2023-04-15T07:04:08.297Z,11.70
2023-04-15T07:06:35.749Z,10.10
2023-04-15T07:09:03.676Z,12.75
2023-04-15T07:11:31.267Z,9.35
2023-04-15T07:13:58.627Z,9.32
2023-04-15T07:16:27.194Z,9.00
2023-04-15T07:18:55.978Z,10.82
2023-04-15T07:21:22.928Z,8.45
2023-04-15T07:23:49.828Z,10.05
2023-04-15T07:26:16.654Z,9.50
2023-04-15T07:28:43.545Z,8.93
2023-04-15T07:31:10.573Z,7.90
2023-04-15T07:33:37.570Z,9.95
2023-04-15T07:36:04.514Z,11.43
2023-04-15T07:38:31.310Z,7.90
2023-04-15T07:40:58.319Z,9.35
2023-04-15T07:43:25.341Z,9.77
2023-04-15T07:45:52.216Z,10.65
2023-04-15T07:48:19.150Z,11.07
2023-04-15T07:50:46.017Z,7.97
2023-04-15T07:53:13.540Z,7.93
2023-04-15T07:55:40.566Z,8.38
2023-04-15T07:58:07.375Z,9.32
2023-04-15T08:00:34.216Z,8.40
2023-04-15T08:03:01.335Z,8.27
2023-04-15T08:05:28.712Z,6.63
2023-04-15T08:07:56.186Z,7.80
2023-04-15T08:10:23.487Z,6.78
2023-04-15T08:12:50.838Z,7.95
2023-04-15T08:15:17.717Z,7.20
2023-04-15T08:17:44.618Z,5.63
2023-04-15T08:20:11.850Z,6.13
2023-04-15T08:22:39.056Z,7.22
2023-04-15T08:25:06.265Z,6.70
2023-04-15T08:27:33.087Z,8.63
2023-04-15T08:30:02.143Z,6.53
2023-04-15T08:32:30.417Z,5.95
2023-04-15T08:34:57.240Z,7.70
2023-04-15T08:37:24.149Z,5.68
2023-04-15T08:39:51.006Z,6.97
2023-04-15T08:42:23.333Z,6.60
2023-04-15T08:44:51.181Z,9.20
2023-04-15T08:47:22.624Z,7.30
2023-04-15T08:49:53.933Z,4.70
2023-04-15T08:52:21.472Z,7.72
2023-04-15T08:54:49.076Z,6.60
2023-04-15T08:57:16.310Z,5.80
2023-04-15T08:59:43.925Z,7.28
2023-04-15T09:02:12.056Z,5.97
2023-04-15T09:04:39.076Z,5.70
2023-04-15T09:07:06.134Z,7.93
2023-04-15T09:09:32.983Z,6.55
2023-04-15T09:12:01.891Z,10.43
2023-04-15T09:14:32.152Z,4.82
2023-04-15T09:17:01.014Z,5.45
2023-04-15T09:19:28.742Z,7.20
2023-04-15T09:21:59.128Z,5.78
2023-04-15T09:24:34.260Z,5.63
2023-04-15T09:27:01.120Z,4.90
2023-04-15T09:29:28.218Z,6.72
2023-04-15T09:31:55.045Z,14.20
2023-04-15T09:34:22.540Z,6.47
2023-04-15T09:36:54.955Z,9.55
2023-04-15T09:39:21.871Z,5.20
2023-04-15T09:42:08.290Z,4.63
2023-04-15T09:44:35.528Z,4.57
2023-04-15T09:47:02.465Z,5.88
2023-04-15T09:49:29.476Z,6.00
2023-04-15T09:52:06.064Z,3.97
2023-04-15T09:54:35.092Z,5.57
2023-04-15T09:57:12.303Z,4.30
2023-04-15T09:59:39.546Z,5.00
2023-04-15T10:02:09.591Z,5.60
2023-04-15T10:04:40.898Z,4.75
2023-04-15T10:07:12.683Z,3.97
2023-04-15T10:09:40.302Z,4.93
2023-04-15T10:12:07.414Z,4.53
2023-04-15T10:14:38.423Z,5.78
2023-04-15T10:17:06.082Z,5.18
2023-04-15T10:19:37.831Z,4.32
2023-04-15T10:22:05.177Z,5.55
2023-04-15T10:24:32.391Z,5.80
2023-04-15T10:27:00.264Z,4.50
2023-04-15T10:29:30.166Z,4.90
2023-04-15T10:31:58.649Z,5.43
2023-04-15T10:34:26.923Z,7.63
2023-04-15T10:36:58.452Z,23.58
2023-04-15T10:39:34.554Z,14.52
2023-04-15T10:42:15.881Z,7.13
2023-04-15T10:44:45.127Z,6.85
2023-04-15T10:47:14.273Z,7.97
2023-04-15T10:49:52.745Z,4.40
2023-04-15T10:52:24.857Z,4.03
2023-04-15T10:55:03.658Z,5.78
2023-04-15T10:57:36.270Z,4.35
2023-04-15T11:00:11.281Z,4.78
2023-04-15T11:02:57.601Z,6.22
2023-04-15T11:05:52.058Z,3.63
2023-04-15T11:08:38.976Z,5.00
2023-04-15T11:11:05.920Z,3.55
2023-04-15T11:13:34.236Z,4.40
2023-04-15T11:16:02.601Z,3.25
2023-04-15T11:18:31.358Z,5.28
2023-04-15T11:21:04.823Z,4.63
2023-04-15T11:23:34.742Z,5.28
2023-04-15T11:26:05.520Z,7.28
2023-04-15T11:28:33.343Z,4.53
2023-04-15T11:31:13.468Z,4.05
2023-04-15T11:34:01.512Z,4.15
2023-04-15T11:36:31.874Z,4.20
2023-04-15T11:39:00.257Z,7.35
2023-04-15T11:41:27.518Z,4.35
2023-04-15T11:43:54.405Z,3.15
2023-04-15T11:46:22.821Z,4.72
2023-04-15T11:48:50.269Z,3.97
2023-04-15T11:51:17.154Z,4.47
2023-04-15T11:53:50.572Z,22.77
2023-04-15T11:56:26.254Z,17.75
2023-04-15T11:58:59.319Z,4.07
2023-04-15T12:01:33.261Z,5.03
2023-04-15T12:04:01.566Z,2.92
2023-04-15T12:06:35.110Z,6.43
2023-04-15T12:09:07.062Z,4.40
2023-04-15T12:11:38.577Z,3.67
2023-04-15T12:14:31.497Z,7.85
2023-04-15T12:17:03.555Z,34.15
2023-04-15T12:19:35.398Z,14.77
2023-04-15T12:22:08.757Z,8.90
2023-04-15T12:24:36.982Z,6.45
2023-04-15T12:27:11.816Z,9.50
2023-04-15T12:29:40.415Z,3.90
2023-04-15T12:32:15.466Z,3.67
2023-04-15T12:34:42.346Z,7.63
2023-04-15T12:37:11.340Z,5.82
2023-04-15T12:39:40.629Z,4.07
2023-04-15T12:42:08.893Z,5.10
2023-04-15T12:44:36.690Z,4.75
2023-04-15T12:47:04.330Z,9.35
2023-04-15T12:49:32.823Z,6.57
2023-04-15T12:52:02.237Z,5.97
2023-04-15T12:54:33.107Z,4.30
2023-04-15T12:57:00.961Z,3.97
2023-04-15T12:59:28.462Z,5.72
2023-04-15T13:01:55.554Z,4.03
2023-04-15T13:04:22.563Z,4.85
2023-04-15T13:06:49.857Z,5.65
2023-04-15T13:09:16.859Z,3.17
2023-04-15T13:11:43.899Z,5.50
2023-04-15T13:14:14.046Z,3.38
2023-04-15T13:16:41.552Z,5.93
2023-04-15T13:19:08.679Z,4.82
2023-04-15T13:21:36.380Z,3.78
2023-04-15T13:24:04.529Z,4.38
2023-04-15T13:26:31.974Z,5.70
2023-04-15T13:28:59.457Z,4.03
2023-04-15T13:31:27.253Z,6.45
2023-04-15T13:33:54.217Z,11.45
2023-04-15T13:36:21.184Z,7.20
2023-04-15T13:38:50.934Z,2.30
2023-04-15T13:41:18.223Z,4.07
2023-04-15T13:43:45.057Z,4.97
2023-04-15T13:46:12.042Z,5.88
2023-04-15T13:48:38.957Z,2.90
2023-04-15T13:51:05.983Z,5.35
2023-04-15T13:53:37.744Z,3.85
2023-04-15T13:56:08.342Z,11.48
2023-04-15T13:58:36.157Z,3.30
2023-04-15T14:01:05.780Z,4.80
2023-04-15T14:03:34.924Z,3.75
2023-04-15T14:06:02.092Z,5.63
2023-04-15T14:08:30.415Z,3.85
2023-04-15T14:10:57.857Z,3.50
2023-04-15T14:13:25.246Z,4.40
2023-04-15T14:15:52.135Z,3.95
2023-04-15T14:18:18.988Z,3.55
2023-04-15T14:20:45.947Z,5.25
2023-04-15T14:23:13.039Z,4.78
2023-04-15T14:25:39.903Z,4.55
2023-04-15T14:28:06.831Z,4.90
2023-04-15T14:30:33.765Z,3.47
2023-04-15T14:33:00.949Z,2.90
2023-04-15T14:35:28.671Z,6.15
2023-04-15T14:37:55.894Z,8.05
2023-04-15T14:40:23.203Z,8.77
2023-04-15T14:42:50.239Z,6.30
2023-04-15T14:45:17.718Z,3.58
2023-04-15T14:47:45.043Z,5.38
2023-04-15T14:50:12.273Z,5.50
2023-04-15T14:52:39.239Z,6.55
2023-04-15T14:55:10.710Z,4.05
2023-04-15T14:57:38.497Z,5.60
2023-04-15T15:00:07.414Z,6.88
2023-04-15T15:05:05.107Z,5.60
2023-04-15T15:07:32.317Z,5.85
2023-04-15T15:09:59.121Z,5.53
2023-04-15T15:12:26.208Z,6.85
2023-04-15T15:14:53.077Z,7.72
2023-04-15T15:17:19.942Z,4.05
2023-04-15T15:19:46.729Z,7.22
2023-04-15T15:22:13.619Z,5.97
2023-04-15T15:24:40.499Z,7.60
2023-04-15T15:27:07.610Z,8.88
2023-04-15T15:29:34.483Z,7.25
2023-04-15T15:32:01.477Z,7.05
2023-04-15T15:34:28.315Z,7.25
2023-04-15T15:36:55.944Z,6.25
2023-04-15T15:39:25.909Z,8.95
2023-04-15T15:41:52.872Z,6.00
2023-04-15T15:44:19.750Z,5.55
2023-04-15T15:46:46.633Z,5.60
2023-04-15T15:49:13.521Z,8.93
2023-04-15T15:51:40.389Z,9.57
2023-04-15T15:54:07.353Z,8.38
2023-04-15T15:56:35.094Z,9.90
2023-04-15T15:59:02.047Z,6.70
2023-04-15T16:01:29.063Z,11.70
2023-04-15T16:03:56.109Z,7.18
2023-04-15T16:06:23.002Z,6.82
2023-04-15T16:08:49.893Z,8.70
2023-04-15T16:11:16.794Z,6.95
2023-04-15T16:13:43.735Z,5.88
2023-04-15T16:16:10.704Z,8.15
2023-04-15T16:18:37.577Z,8.77
2023-04-15T16:21:04.573Z,9.15
2023-04-15T16:23:31.528Z,7.72
2023-04-15T16:25:58.475Z,7.35
2023-04-15T16:28:27.139Z,10.80
2023-04-15T16:30:54.933Z,7.90
2023-04-15T16:33:21.881Z,12.43
2023-04-15T16:35:48.753Z,8.40
2023-04-15T16:38:15.639Z,8.07
2023-04-15T16:40:42.635Z,10.20
2023-04-15T16:43:11.361Z,8.50
2023-04-15T16:45:38.532Z,6.65
2023-04-15T16:48:05.883Z,10.05
2023-04-15T16:50:32.879Z,10.07
2023-04-15T16:52:59.699Z,6.70
2023-04-15T16:55:26.879Z,9.75
2023-04-15T16:58:01.506Z,8.65
2023-04-15T17:00:31.430Z,6.88
2023-04-15T17:02:59.060Z,10.02
2023-04-15T17:05:27.736Z,8.40
2023-04-15T17:07:55.176Z,10.65
2023-04-15T17:10:22.443Z,6.72
2023-04-15T17:12:52.046Z,8.07
2023-04-15T17:15:20.104Z,8.63
2023-04-15T17:17:47.050Z,9.38
2023-04-15T17:20:14.235Z,10.00
2023-04-15T17:22:41.138Z,8.88
2023-04-15T17:25:08.425Z,9.13
2023-04-15T17:27:35.607Z,12.10
2023-04-15T17:30:02.474Z,9.20
2023-04-15T17:32:31.972Z,12.25
2023-04-15T17:34:59.147Z,13.02
2023-04-15T17:37:26.774Z,11.60
2023-04-15T17:39:53.560Z,15.32
2023-04-15T17:42:21.615Z,14.15
2023-04-15T17:44:48.445Z,12.52
2023-04-15T17:47:15.553Z,12.32
2023-04-15T17:49:43.773Z,11.60
2023-04-15T17:52:10.658Z,8.45
2023-04-15T17:54:37.502Z,12.50
2023-04-15T17:57:04.504Z,12.88
2023-04-15T17:59:31.380Z,13.35
2023-04-15T18:01:58.918Z,13.73
2023-04-15T18:04:26.828Z,15.43
2023-04-15T18:06:54.191Z,15.23
2023-04-15T18:09:21.209Z,12.52
2023-04-15T18:11:48.867Z,13.43
2023-04-15T18:14:30.625Z,11.65
2023-04-15T18:17:01.423Z,14.20
2023-04-15T18:19:28.429Z,16.35
2023-04-15T18:21:55.312Z,14.75
2023-04-15T18:24:22.679Z,15.63
2023-04-15T18:26:49.673Z,17.33
2023-04-15T18:29:16.970Z,14.95
2023-04-15T18:31:44.136Z,16.25
2023-04-15T18:34:11.313Z,13.00
2023-04-15T18:36:38.190Z,10.48
2023-04-15T18:39:05.715Z,8.57
2023-04-15T18:41:32.785Z,15.57
2023-04-15T18:43:59.745Z,11.82
2023-04-15T18:46:27.671Z,11.95
2023-04-15T18:48:54.512Z,13.30
2023-04-15T18:51:21.378Z,13.43
2023-04-15T18:53:48.345Z,11.90
2023-04-15T18:56:15.494Z,14.52
2023-04-15T18:59:25.277Z,17.33
2023-04-15T19:01:31.632Z,12.75
2023-04-15T19:03:59.623Z,12.57
2023-04-15T19:06:27.284Z,18.42
2023-04-15T19:08:54.623Z,11.85
2023-04-15T19:11:21.781Z,14.20
2023-04-15T19:13:48.769Z,14.35
2023-04-15T19:16:15.744Z,17.67
2023-04-15T19:18:43.221Z,14.63
2023-04-15T19:21:14.440Z,13.68
2023-04-15T19:23:45.564Z,17.35
2023-04-15T19:26:12.569Z,14.80
2023-04-15T19:28:39.489Z,17.55
2023-04-15T19:31:06.793Z,16.50
2023-04-15T19:33:34.280Z,19.13
2023-04-15T19:36:04.069Z,19.08
2023-04-15T19:38:31.793Z,17.42
2023-04-15T19:40:59.281Z,15.20
2023-04-15T19:43:26.311Z,17.42
2023-04-15T19:45:54.784Z,19.77
2023-04-15T19:48:25.624Z,11.50
2023-04-15T19:50:52.501Z,12.45
2023-04-15T19:53:19.356Z,18.33
2023-04-15T19:55:47.194Z,18.17
2023-04-15T19:58:14.261Z,18.02
2023-04-15T20:00:41.153Z,18.13
2023-04-15T20:03:08.174Z,19.08
2023-04-15T20:05:35.578Z,17.92
2023-04-15T20:08:02.891Z,18.77
2023-04-15T20:10:31.815Z,22.23
2023-04-15T20:12:58.971Z,17.27
2023-04-15T20:15:26.082Z,22.75
2023-04-15T20:17:53.097Z,17.42
2023-04-15T20:20:20.220Z,17.08
2023-04-15T20:22:47.253Z,19.33
2023-04-15T20:25:14.306Z,16.90
2023-04-15T20:27:41.225Z,16.85
2023-04-15T20:30:08.650Z,20.77
2023-04-15T20:32:36.074Z,20.98
2023-04-15T20:35:04.499Z,16.33
2023-04-15T20:37:33.461Z,21.15
2023-04-15T20:40:01.660Z,17.80
2023-04-15T20:42:32.217Z,19.27
2023-04-15T20:44:59.182Z,25.00
2023-04-15T20:47:26.390Z,20.38
2023-04-15T20:49:53.971Z,21.60
2023-04-15T20:52:20.826Z,16.58
2023-04-15T20:54:47.695Z,22.30
2023-04-15T20:57:14.555Z,24.13
2023-04-15T20:59:41.425Z,20.20
2023-04-15T21:02:08.364Z,21.33
2023-04-15T21:04:35.887Z,21.73
2023-04-15T21:07:02.746Z,22.73
2023-04-15T21:09:29.718Z,19.60
2023-04-15T21:12:01.726Z,22.90
2023-04-15T21:14:29.366Z,18.60
2023-04-15T21:16:58.234Z,28.55
2023-04-15T21:19:25.163Z,24.08
2023-04-15T21:21:52.490Z,25.67
2023-04-15T21:24:19.347Z,21.83
2023-04-15T21:26:46.239Z,25.30
2023-04-15T21:29:13.350Z,23.67
2023-04-15T21:31:40.827Z,23.70
2023-04-15T21:34:07.755Z,24.02
2023-04-15T21:36:35.028Z,24.35
2023-04-15T21:39:01.899Z,26.05
2023-04-15T21:41:28.862Z,23.05
2023-04-15T21:43:55.836Z,27.80
2023-04-15T21:46:25.687Z,22.92
2023-04-15T21:48:59.978Z,26.33
2023-04-15T21:51:27.660Z,24.58
2023-04-15T21:53:54.562Z,30.80
2023-04-15T21:56:23.165Z,29.85
2023-04-15T21:58:50.079Z,29.07
2023-04-15T22:01:18.116Z,33.50
2023-04-15T22:03:45.170Z,29.75
2023-04-15T22:06:13.689Z,28.58
2023-04-15T22:08:54.935Z,30.05
2023-04-15T22:11:27.250Z,24.70
2023-04-15T22:13:55.174Z,29.90
2023-04-15T22:16:22.143Z,26.80
2023-04-15T22:18:49.126Z,28.92
2023-04-15T22:21:16.342Z,35.35
2023-04-15T22:23:47.214Z,27.73
2023-04-15T22:26:14.065Z,27.65
2023-04-15T22:28:40.961Z,28.23
2023-04-15T22:31:07.958Z,29.48
2023-04-15T22:33:35.204Z,29.05
2023-04-15T22:36:02.030Z,28.67
2023-04-15T22:38:28.978Z,38.97
2023-04-15T22:40:55.916Z,32.33
2023-04-15T22:43:22.895Z,34.88
2023-04-15T22:45:50.790Z,35.10
2023-04-15T22:48:18.800Z,34.28
2023-04-15T22:50:45.907Z,30.40
2023-04-15T22:53:13.197Z,34.75
2023-04-15T22:55:40.028Z,31.15
2023-04-15T22:58:06.914Z,33.95
2023-04-15T23:00:33.780Z,32.35
2023-04-15T23:03:00.901Z,43.33
2023-04-15T23:05:27.957Z,40.05
2023-04-15T23:07:54.834Z,33.40
2023-04-15T23:10:21.807Z,33.45
2023-04-15T23:12:48.777Z,35.95
2023-04-15T23:15:15.855Z,32.45
2023-04-15T23:17:43.337Z,35.28
2023-04-15T23:20:11.322Z,40.85
2023-04-15T23:22:38.783Z,39.22
2023-04-15T23:25:06.380Z,38.30
2023-04-15T23:27:33.268Z,42.38
2023-04-15T23:30:00.251Z,34.60
2023-04-15T23:32:27.411Z,39.05
2023-04-15T23:34:54.366Z,38.17
2023-04-15T23:37:21.332Z,39.85
2023-04-15T23:39:48.221Z,41.53
2023-04-15T23:42:15.122Z,39.17
2023-04-15T23:44:42.012Z,38.38
2023-04-15T23:47:08.935Z,36.53
2023-04-15T23:49:36.957Z,47.63
2023-04-15T23:52:04.199Z,41.17
2023-04-15T23:54:31.028Z,39.97
2023-04-15T23:56:57.866Z,39.30
2023-04-15T23:59:24.688Z,38.65
